sensor_id;sensor_type;location;lat;lon;timestamp;P1;durP1;ratioP1;P2;durP2;ratioP2
42244;SDS011;27912;51.828;5.688;2023-02-11T00:00:33;22.52;;;9.55;;
42244;SDS011;27912;51.828;5.688;2023-02-11T00:02:59;24.00;;;9.05;;
42244;SDS011;27912;51.828;5.688;2023-02-11T00:05:24;13.80;;;7.22;;
42244;SDS011;27912;51.828;5.688;2023-02-11T00:07:50;18.98;;;7.97;;
42244;SDS011;27912;51.828;5.688;2023-02-11T00:10:15;22.23;;;8.05;;
42244;SDS011;27912;51.828;5.688;2023-02-11T00:12:44;18.27;;;7.22;;
42244;SDS011;27912;51.828;5.688;2023-02-11T00:15:09;17.42;;;7.10;;
42244;SDS011;27912;51.828;5.688;2023-02-11T00:17:35;17.25;;;7.25;;
42244;SDS011;27912;51.828;5.688;2023-02-11T00:20:00;14.52;;;7.38;;
42244;SDS011;27912;51.828;5.688;2023-02-11T00:22:26;14.50;;;7.13;;
42244;SDS011;27912;51.828;5.688;2023-02-11T00:24:51;16.52;;;7.35;;
42244;SDS011;27912;51.828;5.688;2023-02-11T00:27:17;27.85;;;7.47;;
42244;SDS011;27912;51.828;5.688;2023-02-11T00:29:43;17.23;;;6.82;;
42244;SDS011;27912;51.828;5.688;2023-02-11T00:32:08;15.20;;;6.40;;
42244;SDS011;27912;51.828;5.688;2023-02-11T00:34:35;15.88;;;6.35;;
42244;SDS011;27912;51.828;5.688;2023-02-11T00:37:02;18.02;;;6.97;;
42244;SDS011;27912;51.828;5.688;2023-02-11T00:39:28;18.38;;;7.13;;
42244;SDS011;27912;51.828;5.688;2023-02-11T00:41:54;16.75;;;6.80;;
42244;SDS011;27912;51.828;5.688;2023-02-11T00:44:19;17.58;;;6.15;;
42244;SDS011;27912;51.828;5.688;2023-02-11T00:46:45;19.00;;;6.55;;
42244;SDS011;27912;51.828;5.688;2023-02-11T00:49:10;13.50;;;5.72;;
42244;SDS011;27912;51.828;5.688;2023-02-11T00:51:36;15.50;;;5.40;;
42244;SDS011;27912;51.828;5.688;2023-02-11T00:54:02;17.48;;;5.78;;
42244;SDS011;27912;51.828;5.688;2023-02-11T00:56:27;16.65;;;6.75;;
42244;SDS011;27912;51.828;5.688;2023-02-11T00:58:53;13.13;;;5.38;;
42244;SDS011;27912;51.828;5.688;2023-02-11T01:01:19;14.77;;;5.97;;
42244;SDS011;27912;51.828;5.688;2023-02-11T01:03:45;21.38;;;6.35;;
42244;SDS011;27912;51.828;5.688;2023-02-11T01:06:11;17.10;;;6.55;;
42244;SDS011;27912;51.828;5.688;2023-02-11T01:08:37;26.50;;;6.95;;
42244;SDS011;27912;51.828;5.688;2023-02-11T01:11:04;16.75;;;5.00;;
42244;SDS011;27912;51.828;5.688;2023-02-11T01:13:34;19.60;;;6.32;;
42244;SDS011;27912;51.828;5.688;2023-02-11T01:16:01;20.02;;;6.15;;
42244;SDS011;27912;51.828;5.688;2023-02-11T01:18:27;18.48;;;6.00;;
42244;SDS011;27912;51.828;5.688;2023-02-11T01:20:53;19.08;;;5.93;;
42244;SDS011;27912;51.828;5.688;2023-02-11T01:23:20;14.13;;;5.13;;
42244;SDS011;27912;51.828;5.688;2023-02-11T01:25:45;19.10;;;5.20;;
42244;SDS011;27912;51.828;5.688;2023-02-11T01:28:16;15.30;;;5.38;;
42244;SDS011;27912;51.828;5.688;2023-02-11T01:30:43;11.48;;;4.70;;
42244;SDS011;27912;51.828;5.688;2023-02-11T01:33:08;14.45;;;5.30;;
42244;SDS011;27912;51.828;5.688;2023-02-11T01:35:34;18.35;;;4.32;;
42244;SDS011;27912;51.828;5.688;2023-02-11T01:37:59;18.42;;;5.13;;
42244;SDS011;27912;51.828;5.688;2023-02-11T01:40:25;11.93;;;5.03;;
42244;SDS011;27912;51.828;5.688;2023-02-11T01:42:50;13.93;;;4.15;;
42244;SDS011;27912;51.828;5.688;2023-02-11T01:48:14;11.10;;;4.00;;
42244;SDS011;27912;51.828;5.688;2023-02-11T01:50:47;15.60;;;4.97;;
42244;SDS011;27912;51.828;5.688;2023-02-11T01:53:17;19.30;;;4.63;;
42244;SDS011;27912;51.828;5.688;2023-02-11T01:56:02;14.63;;;4.90;;
42244;SDS011;27912;51.828;5.688;2023-02-11T01:58:48;17.60;;;3.95;;
42244;SDS011;27912;51.828;5.688;2023-02-11T02:01:18;19.65;;;4.70;;
42244;SDS011;27912;51.828;5.688;2023-02-11T02:03:48;15.85;;;4.47;;
42244;SDS011;27912;51.828;5.688;2023-02-11T02:06:25;20.80;;;4.50;;
42244;SDS011;27912;51.828;5.688;2023-02-11T02:09:25;29.38;;;5.72;;
42244;SDS011;27912;51.828;5.688;2023-02-11T02:11:54;18.60;;;3.63;;
42244;SDS011;27912;51.828;5.688;2023-02-11T02:14:19;11.40;;;4.00;;
42244;SDS011;27912;51.828;5.688;2023-02-11T02:16:45;17.00;;;4.88;;
42244;SDS011;27912;51.828;5.688;2023-02-11T02:22:28;15.85;;;4.78;;
42244;SDS011;27912;51.828;5.688;2023-02-11T02:34:28;17.63;;;4.45;;
42244;SDS011;27912;51.828;5.688;2023-02-11T02:37:18;15.43;;;4.55;;
42244;SDS011;27912;51.828;5.688;2023-02-11T02:39:51;17.63;;;4.63;;
42244;SDS011;27912;51.828;5.688;2023-02-11T02:42:16;12.95;;;3.90;;
42244;SDS011;27912;51.828;5.688;2023-02-11T02:44:47;15.07;;;4.25;;
42244;SDS011;27912;51.828;5.688;2023-02-11T02:47:15;20.95;;;4.95;;
42244;SDS011;27912;51.828;5.688;2023-02-11T02:49:41;18.17;;;4.40;;
42244;SDS011;27912;51.828;5.688;2023-02-11T03:00:29;17.27;;;5.40;;
42244;SDS011;27912;51.828;5.688;2023-02-11T03:08:15;16.10;;;4.57;;
42244;SDS011;27912;51.828;5.688;2023-02-11T03:11:00;20.30;;;5.50;;
42244;SDS011;27912;51.828;5.688;2023-02-11T03:13:28;19.17;;;6.20;;
42244;SDS011;27912;51.828;5.688;2023-02-11T03:15:57;21.67;;;5.90;;
42244;SDS011;27912;51.828;5.688;2023-02-11T03:18:36;18.27;;;5.50;;
42244;SDS011;27912;51.828;5.688;2023-02-11T03:21:04;20.15;;;5.78;;
42244;SDS011;27912;51.828;5.688;2023-02-11T03:23:39;14.80;;;4.88;;
42244;SDS011;27912;51.828;5.688;2023-02-11T03:26:20;16.70;;;5.30;;
42244;SDS011;27912;51.828;5.688;2023-02-11T03:37:13;17.73;;;6.40;;
42244;SDS011;27912;51.828;5.688;2023-02-11T03:39:53;19.48;;;6.82;;
42244;SDS011;27912;51.828;5.688;2023-02-11T03:42:25;16.02;;;5.53;;
42244;SDS011;27912;51.828;5.688;2023-02-11T03:44:58;18.73;;;6.70;;
42244;SDS011;27912;51.828;5.688;2023-02-11T03:47:31;20.15;;;6.28;;
42244;SDS011;27912;51.828;5.688;2023-02-11T03:50:02;13.85;;;6.75;;
42244;SDS011;27912;51.828;5.688;2023-02-11T03:52:30;17.95;;;7.05;;
42244;SDS011;27912;51.828;5.688;2023-02-11T03:54:57;17.23;;;6.55;;
42244;SDS011;27912;51.828;5.688;2023-02-11T03:57:26;16.73;;;6.68;;
42244;SDS011;27912;51.828;5.688;2023-02-11T03:59:52;19.17;;;7.28;;
42244;SDS011;27912;51.828;5.688;2023-02-11T04:02:23;18.20;;;6.72;;
42244;SDS011;27912;51.828;5.688;2023-02-11T04:04:52;26.90;;;8.07;;
42244;SDS011;27912;51.828;5.688;2023-02-11T04:07:17;20.50;;;7.72;;
42244;SDS011;27912;51.828;5.688;2023-02-11T04:09:43;24.80;;;8.50;;
42244;SDS011;27912;51.828;5.688;2023-02-11T04:12:08;22.48;;;8.00;;
42244;SDS011;27912;51.828;5.688;2023-02-11T04:14:34;26.27;;;8.40;;
42244;SDS011;27912;51.828;5.688;2023-02-11T04:17:00;21.75;;;8.25;;
42244;SDS011;27912;51.828;5.688;2023-02-11T04:19:25;28.77;;;8.82;;
42244;SDS011;27912;51.828;5.688;2023-02-11T04:21:51;24.15;;;8.70;;
42244;SDS011;27912;51.828;5.688;2023-02-11T04:24:16;23.58;;;8.73;;
42244;SDS011;27912;51.828;5.688;2023-02-11T04:26:42;27.67;;;8.40;;
42244;SDS011;27912;51.828;5.688;2023-02-11T04:29:07;23.35;;;8.40;;
42244;SDS011;27912;51.828;5.688;2023-02-11T04:31:33;21.85;;;8.93;;
42244;SDS011;27912;51.828;5.688;2023-02-11T04:33:58;24.65;;;9.98;;
42244;SDS011;27912;51.828;5.688;2023-02-11T04:36:24;20.85;;;9.45;;
42244;SDS011;27912;51.828;5.688;2023-02-11T04:38:49;19.88;;;9.05;;
42244;SDS011;27912;51.828;5.688;2023-02-11T04:41:15;25.15;;;9.80;;
42244;SDS011;27912;51.828;5.688;2023-02-11T04:43:48;32.28;;;9.98;;
42244;SDS011;27912;51.828;5.688;2023-02-11T04:46:13;27.27;;;10.52;;
42244;SDS011;27912;51.828;5.688;2023-02-11T04:48:39;24.42;;;10.05;;
42244;SDS011;27912;51.828;5.688;2023-02-11T04:51:13;21.52;;;9.10;;
42244;SDS011;27912;51.828;5.688;2023-02-11T04:53:48;25.02;;;10.88;;
42244;SDS011;27912;51.828;5.688;2023-02-11T04:56:14;24.88;;;10.45;;
42244;SDS011;27912;51.828;5.688;2023-02-11T04:58:39;24.70;;;10.35;;
42244;SDS011;27912;51.828;5.688;2023-02-11T05:01:09;31.42;;;11.18;;
42244;SDS011;27912;51.828;5.688;2023-02-11T05:03:35;23.95;;;10.90;;
42244;SDS011;27912;51.828;5.688;2023-02-11T05:06:04;28.05;;;11.75;;
42244;SDS011;27912;51.828;5.688;2023-02-11T05:08:30;27.35;;;11.93;;
42244;SDS011;27912;51.828;5.688;2023-02-11T05:10:56;24.60;;;11.02;;
42244;SDS011;27912;51.828;5.688;2023-02-11T05:13:22;27.33;;;10.60;;
42244;SDS011;27912;51.828;5.688;2023-02-11T05:15:53;26.20;;;10.52;;
42244;SDS011;27912;51.828;5.688;2023-02-11T05:18:19;20.55;;;10.27;;
42244;SDS011;27912;51.828;5.688;2023-02-11T05:20:45;29.83;;;11.75;;
42244;SDS011;27912;51.828;5.688;2023-02-11T05:23:10;29.73;;;11.52;;
42244;SDS011;27912;51.828;5.688;2023-02-11T05:25:36;22.67;;;10.82;;
42244;SDS011;27912;51.828;5.688;2023-02-11T05:28:03;28.30;;;11.55;;
42244;SDS011;27912;51.828;5.688;2023-02-11T05:30:29;28.00;;;12.15;;
42244;SDS011;27912;51.828;5.688;2023-02-11T05:32:55;30.67;;;12.20;;
42244;SDS011;27912;51.828;5.688;2023-02-11T05:35:21;28.73;;;12.15;;
42244;SDS011;27912;51.828;5.688;2023-02-11T05:37:46;32.22;;;12.07;;
42244;SDS011;27912;51.828;5.688;2023-02-11T05:40:12;26.30;;;11.85;;
42244;SDS011;27912;51.828;5.688;2023-02-11T05:42:38;33.88;;;13.57;;
42244;SDS011;27912;51.828;5.688;2023-02-11T05:45:04;24.83;;;12.10;;
42244;SDS011;27912;51.828;5.688;2023-02-11T05:47:30;27.17;;;12.68;;
42244;SDS011;27912;51.828;5.688;2023-02-11T05:49:55;28.33;;;13.65;;
42244;SDS011;27912;51.828;5.688;2023-02-11T05:52:21;29.27;;;13.63;;
42244;SDS011;27912;51.828;5.688;2023-02-11T05:54:47;23.38;;;12.20;;
42244;SDS011;27912;51.828;5.688;2023-02-11T05:57:13;26.67;;;12.43;;
42244;SDS011;27912;51.828;5.688;2023-02-11T05:59:39;28.25;;;12.85;;
42244;SDS011;27912;51.828;5.688;2023-02-11T06:02:05;23.05;;;11.95;;
42244;SDS011;27912;51.828;5.688;2023-02-11T06:04:35;26.55;;;12.98;;
42244;SDS011;27912;51.828;5.688;2023-02-11T06:07:01;32.05;;;14.18;;
42244;SDS011;27912;51.828;5.688;2023-02-11T06:09:27;27.38;;;12.93;;
42244;SDS011;27912;51.828;5.688;2023-02-11T06:11:53;25.52;;;13.43;;
42244;SDS011;27912;51.828;5.688;2023-02-11T06:14:18;29.23;;;13.50;;
42244;SDS011;27912;51.828;5.688;2023-02-11T06:16:44;27.60;;;13.02;;
42244;SDS011;27912;51.828;5.688;2023-02-11T06:19:10;32.03;;;14.27;;
42244;SDS011;27912;51.828;5.688;2023-02-11T06:21:36;29.35;;;13.93;;
42244;SDS011;27912;51.828;5.688;2023-02-11T06:24:03;35.03;;;14.52;;
42244;SDS011;27912;51.828;5.688;2023-02-11T06:26:29;28.40;;;13.63;;
42244;SDS011;27912;51.828;5.688;2023-02-11T06:28:55;27.25;;;14.07;;
42244;SDS011;27912;51.828;5.688;2023-02-11T06:31:23;34.38;;;14.85;;
42244;SDS011;27912;51.828;5.688;2023-02-11T06:33:48;40.30;;;16.00;;
42244;SDS011;27912;51.828;5.688;2023-02-11T06:36:15;32.85;;;15.93;;
42244;SDS011;27912;51.828;5.688;2023-02-11T06:38:42;27.90;;;13.68;;
42244;SDS011;27912;51.828;5.688;2023-02-11T06:41:09;35.65;;;15.30;;
42244;SDS011;27912;51.828;5.688;2023-02-11T06:43:35;37.15;;;15.82;;
42244;SDS011;27912;51.828;5.688;2023-02-11T06:46:01;37.13;;;16.27;;
42244;SDS011;27912;51.828;5.688;2023-02-11T06:48:26;29.10;;;14.75;;
42244;SDS011;27912;51.828;5.688;2023-02-11T06:50:52;38.72;;;17.05;;
42244;SDS011;27912;51.828;5.688;2023-02-11T06:53:17;40.53;;;17.80;;
42244;SDS011;27912;51.828;5.688;2023-02-11T06:55:43;36.13;;;17.15;;
42244;SDS011;27912;51.828;5.688;2023-02-11T06:58:08;34.60;;;15.77;;
42244;SDS011;27912;51.828;5.688;2023-02-11T07:00:34;38.30;;;17.17;;
42244;SDS011;27912;51.828;5.688;2023-02-11T07:03:00;34.75;;;16.27;;
42244;SDS011;27912;51.828;5.688;2023-02-11T07:05:26;36.15;;;16.67;;
42244;SDS011;27912;51.828;5.688;2023-02-11T07:07:51;43.25;;;19.65;;
42244;SDS011;27912;51.828;5.688;2023-02-11T07:10:17;42.90;;;18.80;;
42244;SDS011;27912;51.828;5.688;2023-02-11T07:12:42;44.38;;;18.92;;
42244;SDS011;27912;51.828;5.688;2023-02-11T07:15:08;44.72;;;20.50;;
42244;SDS011;27912;51.828;5.688;2023-02-11T07:17:34;38.22;;;19.33;;
42244;SDS011;27912;51.828;5.688;2023-02-11T07:20:00;46.38;;;21.42;;
42244;SDS011;27912;51.828;5.688;2023-02-11T07:22:25;43.63;;;20.88;;
42244;SDS011;27912;51.828;5.688;2023-02-11T07:24:51;36.92;;;18.42;;
42244;SDS011;27912;51.828;5.688;2023-02-11T07:27:17;44.00;;;19.00;;
42244;SDS011;27912;51.828;5.688;2023-02-11T07:29:42;44.72;;;20.70;;
42244;SDS011;27912;51.828;5.688;2023-02-11T07:32:09;52.85;;;22.73;;
42244;SDS011;27912;51.828;5.688;2023-02-11T07:34:35;55.92;;;23.60;;
42244;SDS011;27912;51.828;5.688;2023-02-11T07:37:01;51.63;;;24.45;;
42244;SDS011;27912;51.828;5.688;2023-02-11T07:39:26;40.33;;;21.13;;
42244;SDS011;27912;51.828;5.688;2023-02-11T07:41:53;54.70;;;23.48;;
42244;SDS011;27912;51.828;5.688;2023-02-11T07:44:19;42.85;;;21.38;;
42244;SDS011;27912;51.828;5.688;2023-02-11T07:46:44;47.60;;;23.73;;
42244;SDS011;27912;51.828;5.688;2023-02-11T07:49:11;55.92;;;24.05;;
42244;SDS011;27912;51.828;5.688;2023-02-11T07:51:37;50.60;;;24.20;;
42244;SDS011;27912;51.828;5.688;2023-02-11T07:54:03;50.38;;;23.45;;
42244;SDS011;27912;51.828;5.688;2023-02-11T07:56:28;56.00;;;24.85;;
42244;SDS011;27912;51.828;5.688;2023-02-11T07:58:54;51.53;;;26.15;;
42244;SDS011;27912;51.828;5.688;2023-02-11T08:01:24;53.42;;;25.08;;
42244;SDS011;27912;51.828;5.688;2023-02-11T08:03:52;52.85;;;23.90;;
42244;SDS011;27912;51.828;5.688;2023-02-11T08:06:21;56.25;;;24.48;;
42244;SDS011;27912;51.828;5.688;2023-02-11T08:08:48;47.15;;;24.60;;
42244;SDS011;27912;51.828;5.688;2023-02-11T08:11:15;58.83;;;26.35;;
42244;SDS011;27912;51.828;5.688;2023-02-11T08:13:45;55.70;;;25.70;;
42244;SDS011;27912;51.828;5.688;2023-02-11T08:16:16;60.28;;;28.08;;
42244;SDS011;27912;51.828;5.688;2023-02-11T08:18:44;51.47;;;26.25;;
42244;SDS011;27912;51.828;5.688;2023-02-11T08:21:09;63.97;;;28.63;;
42244;SDS011;27912;51.828;5.688;2023-02-11T08:23:36;56.35;;;26.85;;
42244;SDS011;27912;51.828;5.688;2023-02-11T08:26:03;56.80;;;25.98;;
42244;SDS011;27912;51.828;5.688;2023-02-11T08:28:34;63.20;;;29.05;;
42244;SDS011;27912;51.828;5.688;2023-02-11T08:31:05;72.63;;;28.77;;
42244;SDS011;27912;51.828;5.688;2023-02-11T08:33:32;60.97;;;27.95;;
42244;SDS011;27912;51.828;5.688;2023-02-11T08:35:58;64.93;;;29.38;;
42244;SDS011;27912;51.828;5.688;2023-02-11T08:38:24;62.97;;;27.38;;
42244;SDS011;27912;51.828;5.688;2023-02-11T08:40:49;79.28;;;31.50;;
42244;SDS011;27912;51.828;5.688;2023-02-11T08:43:17;70.25;;;29.80;;
42244;SDS011;27912;51.828;5.688;2023-02-11T08:45:43;69.63;;;30.35;;
42244;SDS011;27912;51.828;5.688;2023-02-11T08:48:11;74.65;;;31.85;;
42244;SDS011;27912;51.828;5.688;2023-02-11T08:50:37;72.22;;;30.30;;
42244;SDS011;27912;51.828;5.688;2023-02-11T08:53:03;77.95;;;32.35;;
42244;SDS011;27912;51.828;5.688;2023-02-11T08:55:29;71.75;;;31.92;;
42244;SDS011;27912;51.828;5.688;2023-02-11T08:57:54;65.93;;;28.52;;
42244;SDS011;27912;51.828;5.688;2023-02-11T09:00:20;63.17;;;29.23;;
42244;SDS011;27912;51.828;5.688;2023-02-11T09:02:47;71.93;;;31.10;;
42244;SDS011;27912;51.828;5.688;2023-02-11T09:05:12;75.63;;;32.42;;
42244;SDS011;27912;51.828;5.688;2023-02-11T09:07:38;70.40;;;31.73;;
42244;SDS011;27912;51.828;5.688;2023-02-11T09:10:03;76.47;;;34.08;;
42244;SDS011;27912;51.828;5.688;2023-02-11T09:12:30;77.50;;;34.28;;
42244;SDS011;27912;51.828;5.688;2023-02-11T09:14:56;75.47;;;31.33;;
42244;SDS011;27912;51.828;5.688;2023-02-11T09:17:21;75.40;;;32.72;;
42244;SDS011;27912;51.828;5.688;2023-02-11T09:19:47;73.03;;;31.45;;
42244;SDS011;27912;51.828;5.688;2023-02-11T09:22:12;64.13;;;31.65;;
42244;SDS011;27912;51.828;5.688;2023-02-11T09:24:38;64.18;;;30.52;;
42244;SDS011;27912;51.828;5.688;2023-02-11T09:27:04;70.78;;;32.70;;
42244;SDS011;27912;51.828;5.688;2023-02-11T09:29:30;61.28;;;28.25;;
42244;SDS011;27912;51.828;5.688;2023-02-11T09:31:55;76.00;;;34.42;;
42244;SDS011;27912;51.828;5.688;2023-02-11T09:34:21;63.33;;;31.23;;
42244;SDS011;27912;51.828;5.688;2023-02-11T09:36:46;80.68;;;34.60;;
42244;SDS011;27912;51.828;5.688;2023-02-11T09:39:14;64.32;;;32.53;;
42244;SDS011;27912;51.828;5.688;2023-02-11T09:41:48;59.83;;;31.35;;
42244;SDS011;27912;51.828;5.688;2023-02-11T09:44:27;61.95;;;32.30;;
42244;SDS011;27912;51.828;5.688;2023-02-11T09:47:00;64.03;;;31.30;;
42244;SDS011;27912;51.828;5.688;2023-02-11T09:49:44;66.75;;;32.88;;
42244;SDS011;27912;51.828;5.688;2023-02-11T09:52:24;50.20;;;26.98;;
42244;SDS011;27912;51.828;5.688;2023-02-11T09:58:10;63.10;;;32.05;;
42244;SDS011;27912;51.828;5.688;2023-02-11T10:01:01;59.67;;;30.10;;
42244;SDS011;27912;51.828;5.688;2023-02-11T10:03:43;66.07;;;32.17;;
42244;SDS011;27912;51.828;5.688;2023-02-11T10:08:58;56.93;;;28.87;;
42244;SDS011;27912;51.828;5.688;2023-02-11T10:14:47;53.22;;;26.55;;
42244;SDS011;27912;51.828;5.688;2023-02-11T10:17:49;48.25;;;25.25;;
42244;SDS011;27912;51.828;5.688;2023-02-11T10:20:41;50.55;;;25.45;;
42244;SDS011;27912;51.828;5.688;2023-02-11T10:23:29;49.88;;;25.30;;
42244;SDS011;27912;51.828;5.688;2023-02-11T10:26:01;47.70;;;25.92;;
42244;SDS011;27912;51.828;5.688;2023-02-11T10:28:31;49.35;;;24.33;;
42244;SDS011;27912;51.828;5.688;2023-02-11T10:31:08;52.97;;;26.40;;
42244;SDS011;27912;51.828;5.688;2023-02-11T10:33:50;42.58;;;22.75;;
42244;SDS011;27912;51.828;5.688;2023-02-11T10:36:34;45.53;;;23.70;;
42244;SDS011;27912;51.828;5.688;2023-02-11T10:41:50;40.72;;;21.65;;
42244;SDS011;27912;51.828;5.688;2023-02-11T10:44:24;41.35;;;21.48;;
42244;SDS011;27912;51.828;5.688;2023-02-11T10:47:04;37.30;;;21.48;;
42244;SDS011;27912;51.828;5.688;2023-02-11T10:49:45;43.30;;;21.88;;
42244;SDS011;27912;51.828;5.688;2023-02-11T10:52:17;40.75;;;21.95;;
42244;SDS011;27912;51.828;5.688;2023-02-11T10:55:01;40.90;;;21.50;;
42244;SDS011;27912;51.828;5.688;2023-02-11T11:02:51;36.45;;;20.90;;
42244;SDS011;27912;51.828;5.688;2023-02-11T11:05:22;39.50;;;22.17;;
42244;SDS011;27912;51.828;5.688;2023-02-11T11:07:57;36.25;;;22.65;;
42244;SDS011;27912;51.828;5.688;2023-02-11T11:12:52;43.75;;;22.20;;
42244;SDS011;27912;51.828;5.688;2023-02-11T11:15:19;41.10;;;22.25;;
42244;SDS011;27912;51.828;5.688;2023-02-11T11:17:50;48.47;;;22.35;;
42244;SDS011;27912;51.828;5.688;2023-02-11T11:20:34;34.90;;;19.17;;
42244;SDS011;27912;51.828;5.688;2023-02-11T11:23:08;41.60;;;22.30;;
42244;SDS011;27912;51.828;5.688;2023-02-11T11:26:00;36.55;;;20.40;;
42244;SDS011;27912;51.828;5.688;2023-02-11T11:28:33;35.22;;;19.08;;
42244;SDS011;27912;51.828;5.688;2023-02-11T11:31:03;34.70;;;19.55;;
42244;SDS011;27912;51.828;5.688;2023-02-11T11:33:30;30.17;;;18.52;;
42244;SDS011;27912;51.828;5.688;2023-02-11T11:36:00;36.25;;;20.23;;
42244;SDS011;27912;51.828;5.688;2023-02-11T11:38:35;35.30;;;19.35;;
42244;SDS011;27912;51.828;5.688;2023-02-11T11:41:26;35.97;;;19.55;;
42244;SDS011;27912;51.828;5.688;2023-02-11T11:44:02;37.60;;;19.77;;
42244;SDS011;27912;51.828;5.688;2023-02-11T11:46:41;39.97;;;20.35;;
42244;SDS011;27912;51.828;5.688;2023-02-11T11:49:12;39.22;;;20.83;;
42244;SDS011;27912;51.828;5.688;2023-02-11T11:51:55;31.38;;;18.63;;
42244;SDS011;27912;51.828;5.688;2023-02-11T11:54:32;37.40;;;20.10;;
42244;SDS011;27912;51.828;5.688;2023-02-11T11:56:59;35.00;;;19.58;;
42244;SDS011;27912;51.828;5.688;2023-02-11T11:59:29;31.25;;;17.95;;
42244;SDS011;27912;51.828;5.688;2023-02-11T12:02:17;38.72;;;19.08;;
42244;SDS011;27912;51.828;5.688;2023-02-11T12:07:59;33.15;;;17.38;;
42244;SDS011;27912;51.828;5.688;2023-02-11T12:22:11;34.95;;;18.00;;
42244;SDS011;27912;51.828;5.688;2023-02-11T12:24:52;29.90;;;17.38;;
42244;SDS011;27912;51.828;5.688;2023-02-11T12:32:48;28.20;;;16.60;;
42244;SDS011;27912;51.828;5.688;2023-02-11T12:36:20;28.80;;;16.48;;
42244;SDS011;27912;51.828;5.688;2023-02-11T12:39:00;30.48;;;16.70;;
42244;SDS011;27912;51.828;5.688;2023-02-11T12:41:48;25.00;;;16.48;;
42244;SDS011;27912;51.828;5.688;2023-02-11T12:52:44;24.55;;;15.45;;
42244;SDS011;27912;51.828;5.688;2023-02-11T12:55:41;30.42;;;16.25;;
42244;SDS011;27912;51.828;5.688;2023-02-11T12:58:12;28.30;;;16.15;;
42244;SDS011;27912;51.828;5.688;2023-02-11T13:00:49;28.75;;;17.02;;
42244;SDS011;27912;51.828;5.688;2023-02-11T13:03:37;26.58;;;15.55;;
42244;SDS011;27912;51.828;5.688;2023-02-11T13:06:08;25.35;;;14.75;;
42244;SDS011;27912;51.828;5.688;2023-02-11T13:08:43;22.35;;;13.95;;
42244;SDS011;27912;51.828;5.688;2023-02-11T13:11:16;27.90;;;15.90;;
42244;SDS011;27912;51.828;5.688;2023-02-11T13:13:57;22.63;;;14.13;;
42244;SDS011;27912;51.828;5.688;2023-02-11T13:16:46;27.63;;;15.75;;
42244;SDS011;27912;51.828;5.688;2023-02-11T13:19:17;27.33;;;14.13;;
42244;SDS011;27912;51.828;5.688;2023-02-11T13:27:29;26.80;;;14.85;;
42244;SDS011;27912;51.828;5.688;2023-02-11T13:30:23;26.00;;;13.68;;
42244;SDS011;27912;51.828;5.688;2023-02-11T13:35:25;28.48;;;15.82;;
42244;SDS011;27912;51.828;5.688;2023-02-11T13:37:51;25.05;;;15.30;;
42244;SDS011;27912;51.828;5.688;2023-02-11T13:42:56;27.58;;;13.68;;
42244;SDS011;27912;51.828;5.688;2023-02-11T13:45:37;28.33;;;15.25;;
42244;SDS011;27912;51.828;5.688;2023-02-11T13:50:49;31.10;;;16.25;;
42244;SDS011;27912;51.828;5.688;2023-02-11T13:53:19;25.67;;;15.77;;
42244;SDS011;27912;51.828;5.688;2023-02-11T13:55:47;27.30;;;15.48;;
42244;SDS011;27912;51.828;5.688;2023-02-11T13:58:17;27.42;;;15.35;;
42244;SDS011;27912;51.828;5.688;2023-02-11T14:00:56;28.27;;;16.17;;
42244;SDS011;27912;51.828;5.688;2023-02-11T14:03:26;28.98;;;16.83;;
42244;SDS011;27912;51.828;5.688;2023-02-11T14:06:11;26.98;;;16.05;;
42244;SDS011;27912;51.828;5.688;2023-02-11T14:14:13;26.17;;;14.67;;
42244;SDS011;27912;51.828;5.688;2023-02-11T14:19:31;29.42;;;16.50;;
42244;SDS011;27912;51.828;5.688;2023-02-11T14:22:12;21.83;;;14.70;;
42244;SDS011;27912;51.828;5.688;2023-02-11T14:24:50;26.05;;;15.02;;
42244;SDS011;27912;51.828;5.688;2023-02-11T14:35:31;26.50;;;14.23;;
42244;SDS011;27912;51.828;5.688;2023-02-11T14:41:05;26.65;;;16.05;;
42244;SDS011;27912;51.828;5.688;2023-02-11T14:43:39;28.50;;;15.85;;
42244;SDS011;27912;51.828;5.688;2023-02-11T14:46:09;24.80;;;15.82;;
42244;SDS011;27912;51.828;5.688;2023-02-11T14:48:35;22.92;;;14.82;;
42244;SDS011;27912;51.828;5.688;2023-02-11T14:51:12;29.35;;;16.83;;
42244;SDS011;27912;51.828;5.688;2023-02-11T14:53:43;24.42;;;15.30;;
42244;SDS011;27912;51.828;5.688;2023-02-11T14:56:16;26.33;;;15.45;;
42244;SDS011;27912;51.828;5.688;2023-02-11T14:58:48;27.08;;;14.68;;
42244;SDS011;27912;51.828;5.688;2023-02-11T15:01:29;25.80;;;15.82;;
42244;SDS011;27912;51.828;5.688;2023-02-11T15:04:00;24.90;;;15.95;;
42244;SDS011;27912;51.828;5.688;2023-02-11T15:06:29;27.00;;;16.13;;
42244;SDS011;27912;51.828;5.688;2023-02-11T15:09:03;27.95;;;16.38;;
42244;SDS011;27912;51.828;5.688;2023-02-11T15:11:45;31.40;;;16.60;;
42244;SDS011;27912;51.828;5.688;2023-02-11T15:14:22;27.08;;;16.15;;
42244;SDS011;27912;51.828;5.688;2023-02-11T15:16:52;25.40;;;16.35;;
42244;SDS011;27912;51.828;5.688;2023-02-11T15:21:51;26.10;;;15.43;;
42244;SDS011;27912;51.828;5.688;2023-02-11T15:24:27;21.42;;;13.63;;
42244;SDS011;27912;51.828;5.688;2023-02-11T15:29:25;26.02;;;15.82;;
42244;SDS011;27912;51.828;5.688;2023-02-11T15:32:02;25.48;;;16.05;;
42244;SDS011;27912;51.828;5.688;2023-02-11T15:34:38;29.17;;;17.48;;
42244;SDS011;27912;51.828;5.688;2023-02-11T15:37:05;27.63;;;17.25;;
42244;SDS011;27912;51.828;5.688;2023-02-11T15:39:37;30.73;;;18.02;;
42244;SDS011;27912;51.828;5.688;2023-02-11T15:47:41;31.38;;;17.05;;
42244;SDS011;27912;51.828;5.688;2023-02-11T15:50:20;30.45;;;16.75;;
42244;SDS011;27912;51.828;5.688;2023-02-11T15:52:47;33.67;;;17.88;;
42244;SDS011;27912;51.828;5.688;2023-02-11T15:55:15;33.63;;;18.92;;
42244;SDS011;27912;51.828;5.688;2023-02-11T15:57:48;32.65;;;18.08;;
42244;SDS011;27912;51.828;5.688;2023-02-11T16:00:19;29.33;;;18.30;;
42244;SDS011;27912;51.828;5.688;2023-02-11T16:02:46;28.08;;;17.58;;
42244;SDS011;27912;51.828;5.688;2023-02-11T16:05:25;30.42;;;18.83;;
42244;SDS011;27912;51.828;5.688;2023-02-11T16:07:59;29.15;;;17.63;;
42244;SDS011;27912;51.828;5.688;2023-02-11T16:10:37;33.08;;;18.70;;
42244;SDS011;27912;51.828;5.688;2023-02-11T16:20:53;28.60;;;16.75;;
42244;SDS011;27912;51.828;5.688;2023-02-11T16:23:21;34.40;;;18.20;;
42244;SDS011;27912;51.828;5.688;2023-02-11T16:25:50;34.05;;;18.63;;
42244;SDS011;27912;51.828;5.688;2023-02-11T16:28:20;36.75;;;19.83;;
42244;SDS011;27912;51.828;5.688;2023-02-11T16:30:48;38.90;;;18.98;;
42244;SDS011;27912;51.828;5.688;2023-02-11T16:33:17;33.88;;;19.23;;
42244;SDS011;27912;51.828;5.688;2023-02-11T16:35:42;35.53;;;19.15;;
42244;SDS011;27912;51.828;5.688;2023-02-11T16:38:11;38.15;;;19.98;;
42244;SDS011;27912;51.828;5.688;2023-02-11T16:40:37;35.13;;;19.60;;
42244;SDS011;27912;51.828;5.688;2023-02-11T16:43:02;39.03;;;19.58;;
42244;SDS011;27912;51.828;5.688;2023-02-11T16:45:28;33.47;;;19.73;;
42244;SDS011;27912;51.828;5.688;2023-02-11T16:47:54;30.52;;;17.77;;
42244;SDS011;27912;51.828;5.688;2023-02-11T16:50:20;31.38;;;18.27;;
42244;SDS011;27912;51.828;5.688;2023-02-11T16:52:48;32.00;;;19.20;;
42244;SDS011;27912;51.828;5.688;2023-02-11T16:55:14;35.88;;;19.15;;
42244;SDS011;27912;51.828;5.688;2023-02-11T16:57:39;32.97;;;18.85;;
42244;SDS011;27912;51.828;5.688;2023-02-11T17:00:05;39.38;;;20.23;;